Auburn Junction, Indiana
Current Conditions -  °F | °C
As of 11:35 PM on Saturday 22 Nov 2014 (Local Time) from KGWB Reporting Station
Overcast Overcast  
Wind Chill: 52°   Ceiling: 3400
Heat Index: 52°   Visibility: 10mi
Dew Point: 39°   Wind: 8mph
Humidity: 62%   Direction: 210°SSW
Pressure: 29.97"   Gusts: NA
Location:  41.3419°N, 85.0357°W
Report Text: KGWB 230435Z AUTO 21007KT 175V245 10SM OVC034 11/04 A2997 RMK AO2
Loading
Personal Weather Stations






























Interactive Weather Map New forecast layout! Learn more

10-Day Weather Forecast

Advertisements
Track Severe Weather on mobile